Hlavní strana
METAR-TAF:

METAR-TAF

Letiště :

Mezinárodní letiště Charbin Tchaj-pching

Charbin, Čína

zeměpisná šířka: 45-45N, zeměpisná délka: 126-46E, výška: 143 m

Aktuální stav počasí

Zpráva byla vytvořena před 1 hodinou a 10 minutami, v 22:00 UTC
Jižní vítr 6 kt
Teplota -20°C
Vlhkost vzduchu 84%
Tlak 1035 hPa
Viditelnost 10 km a více
Žádná oblačnost pod 1500 m, nevyskytují se cumulonimby.

METAR: ZYHB 132200Z 19003MPS CAVOK M20/M22 Q1035 NOSIG

Čas: 07:10 (23:10 UTC)

Předpověď počasí

Zpráva byla vytvořena před 9 hodinami a 56 minutami, v 13:14 UTC
Předpověď platná od 13 v 18 UTC do 14 v 18 UTC
Jihozápadní vítr 8 kt
Viditelnost: 5000 m
Skoro jasno ve výšce 3000 ft
kouř
Dočasný
od 13 v 21 UTC do 14 v 01 UTC
Viditelnost: 1500 m
kouř

TAF: ZYHB 131314Z 1318/1418 23004MPS 5000 FU FEW030 TXM07/06Z TNM22/21Z TEMPO 1321/1401 1500 FU

Stav a předpovědi počasí z více než 4 000 letišť (zprávy METAR a TAF).

Červené a žluté tečky na mapě představují dostupné meteorologické stanice.

Když kurzor umístíte na tečku, zobrazí se název stanice.

Pak kliknutím zobrazíte stav a předpověď počasí.

Chcete-li změnit mapu, kliknutím na zelené tlačítko se znaménkem +mapu přiblížíte, kliknutím na zelené tlačítko se znaménkem – mapu oddálíte a kliknutím na zelené šipky přejdete na sousední mapy.


METAR-TAF: